createdAt,value
2023-01-19T00:01:29.517Z,18.80
2023-01-19T00:03:57.883Z,18.65
2023-01-19T00:06:26.315Z,18.53
2023-01-19T00:08:54.888Z,18.50
2023-01-19T00:11:23.822Z,18.39
2023-01-19T00:13:52.010Z,18.27
2023-01-19T00:16:21.841Z,18.51
2023-01-19T00:18:51.919Z,18.57
2023-01-19T00:21:21.310Z,18.42
2023-01-19T00:23:49.623Z,18.32
2023-01-19T00:26:18.495Z,18.37
2023-01-19T00:28:46.621Z,18.32
2023-01-19T00:31:15.473Z,18.53
2023-01-19T00:33:44.052Z,18.34
2023-01-19T00:36:12.339Z,18.31
2023-01-19T00:38:40.612Z,18.43
2023-01-19T00:41:08.858Z,18.20
2023-01-19T00:43:37.052Z,18.28
2023-01-19T00:46:05.385Z,18.07
2023-01-19T00:48:33.866Z,18.14
2023-01-19T00:51:02.019Z,18.17
2023-01-19T00:53:30.333Z,18.14
2023-01-19T00:55:59.265Z,18.11
2023-01-19T00:58:27.394Z,18.09
2023-01-19T01:00:55.651Z,18.22
2023-01-19T01:03:24.002Z,18.12
2023-01-19T01:05:52.140Z,18.16
2023-01-19T01:08:20.281Z,18.00
2023-01-19T01:10:48.550Z,18.23
2023-01-19T01:13:21.301Z,18.25
2023-01-19T01:15:55.570Z,18.14
2023-01-19T01:18:24.465Z,18.15
2023-01-19T01:20:55.248Z,18.00
2023-01-19T01:23:24.738Z,17.86
2023-01-19T01:25:53.383Z,18.02
2023-01-19T01:28:21.596Z,17.92
2023-01-19T01:30:54.903Z,17.85
2023-01-19T01:33:40.884Z,17.99
2023-01-19T01:36:11.961Z,18.01
2023-01-19T01:38:41.399Z,17.97
2023-01-19T01:41:09.968Z,18.03
2023-01-19T01:43:48.606Z,18.03
2023-01-19T01:46:18.234Z,18.03
2023-01-19T01:48:57.451Z,17.97
2023-01-19T01:51:37.464Z,18.04
2023-01-19T01:54:18.390Z,18.07
2023-01-19T01:56:55.854Z,18.11
2023-01-19T01:59:31.234Z,17.96
2023-01-19T02:02:05.042Z,17.78
2023-01-19T02:04:33.591Z,17.81
2023-01-19T02:07:02.328Z,17.89
2023-01-19T02:09:33.674Z,17.83
2023-01-19T02:12:01.859Z,17.96
2023-01-19T02:14:29.986Z,18.00
2023-01-19T02:16:58.452Z,17.86
2023-01-19T02:19:33.160Z,17.67
2023-01-19T02:22:20.515Z,17.53
2023-01-19T02:24:49.621Z,17.54
2023-01-19T02:27:18.374Z,17.57
2023-01-19T02:29:46.746Z,17.54
2023-01-19T02:32:16.317Z,17.53
2023-01-19T02:34:44.505Z,17.56
2023-01-19T02:37:16.350Z,17.49
2023-01-19T02:39:54.899Z,17.32
2023-01-19T02:42:34.173Z,17.32
2023-01-19T02:45:04.992Z,17.34
2023-01-19T02:47:44.750Z,17.33
2023-01-19T02:50:37.918Z,17.30
2023-01-19T02:53:19.025Z,17.08
2023-01-19T02:55:55.488Z,17.24
2023-01-19T02:58:34.094Z,17.19
2023-01-19T03:01:47.447Z,17.29
2023-01-19T03:04:31.470Z,17.33
2023-01-19T03:07:09.468Z,17.25
2023-01-19T03:09:50.177Z,17.31
2023-01-19T03:12:31.295Z,17.18
2023-01-19T03:15:05.360Z,17.20
2023-01-19T03:17:36.183Z,17.07
2023-01-19T03:20:08.996Z,17.13
2023-01-19T03:22:37.069Z,16.97
2023-01-19T03:25:06.925Z,16.97
2023-01-19T03:27:40.168Z,17.02
2023-01-19T03:30:16.092Z,16.80
2023-01-19T03:33:03.598Z,16.84
2023-01-19T03:35:35.748Z,16.76
2023-01-19T03:38:07.853Z,16.80
2023-01-19T03:40:36.829Z,16.82
2023-01-19T03:43:06.501Z,16.87
2023-01-19T03:45:38.595Z,16.86
2023-01-19T03:48:07.954Z,16.86
2023-01-19T03:50:36.247Z,16.99
2023-01-19T03:53:14.611Z,16.92
2023-01-19T03:55:46.667Z,16.85
2023-01-19T03:58:18.238Z,16.85
2023-01-19T04:00:46.365Z,16.83
2023-01-19T04:03:16.798Z,16.59
2023-01-19T04:05:46.046Z,16.74
2023-01-19T04:08:14.243Z,16.70
2023-01-19T04:10:42.548Z,16.78
2023-01-19T04:13:11.152Z,16.60
2023-01-19T04:15:39.673Z,16.73
2023-01-19T04:18:09.136Z,16.74
2023-01-19T04:20:37.972Z,16.71
2023-01-19T04:23:06.174Z,16.62
2023-01-19T04:25:34.339Z,16.51
2023-01-19T04:28:02.789Z,16.63
2023-01-19T04:30:30.960Z,16.54
2023-01-19T04:33:00.102Z,16.38
2023-01-19T04:35:28.773Z,16.45
2023-01-19T04:37:57.179Z,16.55
2023-01-19T04:40:25.324Z,16.51
2023-01-19T04:42:56.108Z,16.46
2023-01-19T04:45:24.397Z,16.55
2023-01-19T04:47:52.728Z,16.56
2023-01-19T04:50:21.148Z,16.43
2023-01-19T04:52:49.313Z,16.46
2023-01-19T04:55:18.133Z,16.64
2023-01-19T04:57:47.941Z,16.61
2023-01-19T05:00:17.465Z,16.55
2023-01-19T05:02:45.738Z,16.63
2023-01-19T05:05:14.318Z,16.62
2023-01-19T05:07:43.747Z,16.77
2023-01-19T05:10:12.811Z,16.57
2023-01-19T05:12:41.134Z,16.56
2023-01-19T05:15:10.116Z,16.63
2023-01-19T05:17:38.492Z,16.53
2023-01-19T05:20:07.999Z,16.45
2023-01-19T05:22:36.249Z,16.42
2023-01-19T05:25:04.692Z,16.44
2023-01-19T05:27:33.095Z,16.55
2023-01-19T05:30:01.576Z,16.43
2023-01-19T05:32:29.829Z,16.47
2023-01-19T05:34:58.116Z,16.35
2023-01-19T05:37:26.482Z,16.31
2023-01-19T05:39:54.774Z,16.36
2023-01-19T05:42:23.051Z,16.64
2023-01-19T05:44:51.445Z,16.57
2023-01-19T05:47:19.666Z,16.64
2023-01-19T05:49:48.374Z,16.69
2023-01-19T05:52:16.689Z,16.64
2023-01-19T05:54:44.945Z,16.50
2023-01-19T05:57:13.300Z,16.58
2023-01-19T05:59:41.495Z,16.61
2023-01-19T06:02:09.616Z,16.46
2023-01-19T06:04:37.886Z,16.47
2023-01-19T06:07:06.667Z,16.53
2023-01-19T06:09:34.897Z,16.67
2023-01-19T06:12:03.946Z,16.62
2023-01-19T06:14:32.072Z,16.66
2023-01-19T06:17:00.624Z,16.64
2023-01-19T06:19:29.244Z,16.66
2023-01-19T06:21:57.441Z,16.66
2023-01-19T06:24:25.651Z,16.49
2023-01-19T06:26:53.957Z,16.59
2023-01-19T06:29:22.268Z,16.61
2023-01-19T06:31:51.022Z,16.73
2023-01-19T06:34:20.431Z,16.76
2023-01-19T06:36:48.625Z,16.70
2023-01-19T06:39:17.070Z,16.62
2023-01-19T06:41:45.337Z,16.78
2023-01-19T06:44:13.723Z,16.68
2023-01-19T06:46:41.917Z,16.58
2023-01-19T06:49:10.345Z,16.76
2023-01-19T06:51:38.763Z,16.68
2023-01-19T06:54:06.907Z,16.79
2023-01-19T06:56:35.190Z,16.73
2023-01-19T06:59:03.567Z,16.73
2023-01-19T07:01:32.418Z,16.71
2023-01-19T07:04:01.122Z,16.62
2023-01-19T07:06:29.433Z,16.56
2023-01-19T07:08:58.020Z,16.51
2023-01-19T07:11:33.006Z,16.62
2023-01-19T07:14:01.733Z,16.50
2023-01-19T07:16:30.122Z,16.66
2023-01-19T07:18:58.340Z,16.51
2023-01-19T07:21:29.096Z,16.62
2023-01-19T07:23:57.609Z,16.63
2023-01-19T07:26:25.854Z,16.79
2023-01-19T07:28:54.204Z,16.88
2023-01-19T07:31:23.017Z,16.72
2023-01-19T07:33:51.329Z,16.74
2023-01-19T07:36:19.508Z,16.80
2023-01-19T07:38:47.894Z,16.92
2023-01-19T07:41:16.258Z,16.87
2023-01-19T07:43:44.509Z,16.96
2023-01-19T07:46:13.235Z,16.68
2023-01-19T07:48:41.491Z,16.88
2023-01-19T07:51:12.740Z,17.68
2023-01-19T07:53:41.565Z,18.87
2023-01-19T07:56:11.152Z,20.14
2023-01-19T07:58:40.073Z,21.08
2023-01-19T08:01:10.361Z,21.73
2023-01-19T08:03:39.409Z,21.98
2023-01-19T08:06:20.299Z,22.09
2023-01-19T08:08:48.605Z,22.22
2023-01-19T08:11:17.846Z,22.97
2023-01-19T08:13:46.762Z,23.72
2023-01-19T08:16:15.030Z,24.67
2023-01-19T08:18:44.034Z,25.32
2023-01-19T08:21:12.386Z,25.84
2023-01-19T08:23:40.752Z,26.47
2023-01-19T08:26:27.306Z,26.15
2023-01-19T08:28:58.172Z,25.69
2023-01-19T08:31:27.403Z,25.85
2023-01-19T08:33:55.819Z,26.42
2023-01-19T08:36:24.099Z,27.03
2023-01-19T08:38:53.395Z,27.95
2023-01-19T08:41:21.854Z,28.37
2023-01-19T08:43:50.456Z,28.75
2023-01-19T08:46:19.387Z,29.58
2023-01-19T08:48:47.977Z,29.74
2023-01-19T08:51:17.144Z,29.90
2023-01-19T08:53:45.912Z,29.80
2023-01-19T08:56:14.447Z,30.44
2023-01-19T08:58:45.704Z,31.10
2023-01-19T09:01:15.007Z,32.10
2023-01-19T09:03:44.429Z,33.10
2023-01-19T09:06:16.025Z,33.71
2023-01-19T09:08:44.547Z,34.09
2023-01-19T09:11:14.881Z,34.29
2023-01-19T09:13:43.663Z,34.92
2023-01-19T09:16:12.093Z,35.24
2023-01-19T09:18:40.521Z,35.14
2023-01-19T09:21:10.200Z,35.42
2023-01-19T09:23:38.514Z,35.58
2023-01-19T09:26:06.782Z,35.61
2023-01-19T09:28:35.111Z,35.56
2023-01-19T09:31:08.429Z,34.97
2023-01-19T09:33:37.522Z,34.64
2023-01-19T09:36:06.435Z,34.95
2023-01-19T09:38:35.291Z,35.33
2023-01-19T09:41:03.667Z,35.20
2023-01-19T09:43:43.898Z,35.20
2023-01-19T09:46:27.904Z,35.07
2023-01-19T09:49:03.353Z,34.71
2023-01-19T09:51:38.478Z,34.84
2023-01-19T09:54:23.387Z,35.04
2023-01-19T09:56:53.735Z,34.87
2023-01-19T09:59:25.345Z,34.63
2023-01-19T10:02:23.050Z,34.32
2023-01-19T10:05:02.921Z,33.68
2023-01-19T10:07:59.717Z,33.64
2023-01-19T10:10:31.657Z,33.46
2023-01-19T10:13:22.542Z,33.70
2023-01-19T10:16:21.165Z,34.18
2023-01-19T10:18:53.064Z,35.10
2023-01-19T10:21:39.375Z,35.02
2023-01-19T10:24:29.634Z,35.36
2023-01-19T10:26:58.005Z,35.52
2023-01-19T10:29:33.854Z,35.88
2023-01-19T10:32:07.415Z,35.76
2023-01-19T10:34:36.587Z,36.17
2023-01-19T10:37:22.106Z,36.32
2023-01-19T10:39:57.490Z,36.24
2023-01-19T10:42:29.874Z,36.32
2023-01-19T10:44:58.817Z,36.13
2023-01-19T10:47:34.794Z,36.44
2023-01-19T10:50:24.909Z,36.85
2023-01-19T10:53:36.178Z,36.83
2023-01-19T10:56:23.626Z,36.99
2023-01-19T10:58:52.436Z,37.26
2023-01-19T11:01:26.957Z,37.44
2023-01-19T11:03:56.095Z,37.78
2023-01-19T11:06:28.152Z,38.26
2023-01-19T11:09:21.358Z,38.09
2023-01-19T11:11:52.503Z,37.88
2023-01-19T11:14:24.660Z,37.42
2023-01-19T11:16:58.373Z,37.08
2023-01-19T11:19:28.194Z,36.70
2023-01-19T11:22:25.842Z,36.67
2023-01-19T11:24:58.849Z,36.93
2023-01-19T11:27:28.320Z,37.07
2023-01-19T11:30:24.506Z,37.15
2023-01-19T11:32:56.445Z,36.50
2023-01-19T11:35:35.443Z,36.71
2023-01-19T11:38:13.772Z,36.63
2023-01-19T11:40:47.566Z,36.95
2023-01-19T11:43:16.883Z,36.89
2023-01-19T11:45:46.286Z,36.80
2023-01-19T11:48:27.732Z,36.01
2023-01-19T11:51:01.251Z,36.12
2023-01-19T11:53:34.114Z,35.70
2023-01-19T11:56:15.237Z,35.48
2023-01-19T11:58:45.368Z,35.46
2023-01-19T12:01:22.446Z,35.56
2023-01-19T12:04:05.639Z,35.52
2023-01-19T12:06:39.637Z,35.33
2023-01-19T12:09:14.065Z,34.57
2023-01-19T12:11:49.187Z,34.15
2023-01-19T12:14:23.347Z,33.80
2023-01-19T12:16:55.409Z,33.21
2023-01-19T12:19:43.366Z,32.88
2023-01-19T12:22:17.901Z,32.32
2023-01-19T12:25:01.184Z,31.81
2023-01-19T12:27:43.832Z,31.37
2023-01-19T12:30:32.681Z,31.22
2023-01-19T12:33:35.409Z,30.65
2023-01-19T12:36:27.001Z,30.06
2023-01-19T12:39:22.733Z,29.72
2023-01-19T12:42:16.236Z,29.44
2023-01-19T12:44:49.252Z,29.44
2023-01-19T12:47:24.142Z,29.17
2023-01-19T12:49:56.826Z,28.95
2023-01-19T12:52:48.906Z,28.75
2023-01-19T12:55:31.648Z,28.46
2023-01-19T12:58:13.973Z,28.59
2023-01-19T13:00:44.959Z,28.29
2023-01-19T13:03:25.759Z,28.59
2023-01-19T13:05:55.915Z,28.44
2023-01-19T13:08:49.698Z,28.29
2023-01-19T13:11:20.119Z,28.27
2023-01-19T13:14:18.038Z,28.29
2023-01-19T13:16:57.806Z,28.16
2023-01-19T13:19:37.401Z,28.33
2023-01-19T13:22:43.355Z,28.21
2023-01-19T13:25:21.668Z,28.14
2023-01-19T13:27:50.341Z,27.96
2023-01-19T13:30:22.428Z,28.01
2023-01-19T13:32:51.621Z,27.79
2023-01-19T13:35:21.172Z,27.52
2023-01-19T13:37:51.502Z,27.81
2023-01-19T13:40:26.467Z,27.87
2023-01-19T13:42:55.087Z,27.81
2023-01-19T13:45:31.835Z,27.93
2023-01-19T13:48:03.124Z,27.99
2023-01-19T13:50:34.219Z,27.77
2023-01-19T13:53:02.623Z,27.84
2023-01-19T13:55:32.083Z,27.64
2023-01-19T13:58:00.662Z,27.70
2023-01-19T14:00:30.403Z,27.81
2023-01-19T14:03:14.123Z,27.80
2023-01-19T14:05:44.282Z,27.73
2023-01-19T14:08:14.720Z,27.51
2023-01-19T14:10:48.125Z,27.57
2023-01-19T14:13:23.090Z,27.57
2023-01-19T14:15:56.692Z,27.71
2023-01-19T14:18:28.221Z,27.81
2023-01-19T14:21:06.192Z,27.86
2023-01-19T14:23:48.952Z,28.04
2023-01-19T14:26:52.311Z,28.11
2023-01-19T14:29:34.400Z,28.19
2023-01-19T14:32:18.036Z,28.18
2023-01-19T14:34:51.091Z,28.25
2023-01-19T14:37:32.933Z,27.89
2023-01-19T14:40:16.999Z,27.97
2023-01-19T14:42:59.906Z,27.86
2023-01-19T14:45:34.318Z,27.82
2023-01-19T14:48:19.651Z,27.74
2023-01-19T14:51:02.508Z,27.64
2023-01-19T14:53:37.591Z,27.71
2023-01-19T14:56:07.105Z,27.77
2023-01-19T14:58:36.107Z,27.59
2023-01-19T15:01:05.733Z,27.48
2023-01-19T15:03:44.418Z,27.38
2023-01-19T15:06:19.092Z,27.44
2023-01-19T15:08:48.179Z,27.55
2023-01-19T15:11:26.055Z,27.69
2023-01-19T15:13:54.715Z,27.80
2023-01-19T15:16:28.199Z,27.53
2023-01-19T15:18:56.932Z,27.33
2023-01-19T15:21:25.156Z,27.43
2023-01-19T15:23:55.111Z,27.52
2023-01-19T15:26:25.554Z,27.39
2023-01-19T15:28:56.512Z,27.36
2023-01-19T15:31:27.754Z,27.39
2023-01-19T15:33:57.406Z,27.32
2023-01-19T15:36:27.430Z,27.26
2023-01-19T15:38:56.325Z,27.37
2023-01-19T15:41:29.522Z,27.45
2023-01-19T15:44:01.469Z,27.49
2023-01-19T15:46:29.912Z,27.39
2023-01-19T15:48:59.255Z,27.16
2023-01-19T15:51:28.218Z,27.20
2023-01-19T15:53:57.937Z,27.17
2023-01-19T15:56:29.166Z,27.19
2023-01-19T15:58:58.935Z,27.01
2023-01-19T16:01:29.526Z,26.92
2023-01-19T16:04:05.567Z,26.81
2023-01-19T16:06:35.142Z,26.63
2023-01-19T16:09:03.856Z,26.58
2023-01-19T16:11:34.221Z,26.54
2023-01-19T16:14:02.766Z,26.49
2023-01-19T16:16:31.222Z,26.38
2023-01-19T16:18:59.719Z,26.23
2023-01-19T16:21:28.636Z,26.17
2023-01-19T16:23:57.157Z,26.30
2023-01-19T16:26:34.100Z,26.09
2023-01-19T16:29:06.002Z,25.77
2023-01-19T16:31:38.877Z,25.35
2023-01-19T16:34:08.854Z,25.25
2023-01-19T16:36:41.018Z,25.07
2023-01-19T16:39:15.115Z,25.17
2023-01-19T16:41:48.448Z,25.06
2023-01-19T16:44:20.546Z,24.86
2023-01-19T16:46:49.145Z,24.72
2023-01-19T16:49:22.241Z,24.63
2023-01-19T16:51:51.909Z,24.31
2023-01-19T16:54:22.487Z,23.96
2023-01-19T16:56:51.129Z,23.77
2023-01-19T16:59:21.203Z,23.66
2023-01-19T17:01:50.959Z,23.47
2023-01-19T17:04:21.603Z,23.48
2023-01-19T17:06:50.003Z,23.33
2023-01-19T17:09:20.112Z,23.28
2023-01-19T17:11:48.438Z,23.23
2023-01-19T17:14:20.857Z,23.20
2023-01-19T17:16:50.414Z,23.23
2023-01-19T17:19:20.424Z,23.19
2023-01-19T17:21:49.491Z,23.16
2023-01-19T17:24:18.613Z,23.21
2023-01-19T17:26:47.538Z,23.08
2023-01-19T17:29:16.442Z,23.03
2023-01-19T17:31:45.423Z,23.10
2023-01-19T17:34:16.038Z,23.11
2023-01-19T17:36:44.767Z,23.12
2023-01-19T17:39:14.314Z,22.96
2023-01-19T17:41:42.880Z,22.91
2023-01-19T17:44:11.520Z,22.74
2023-01-19T17:46:40.256Z,22.73
2023-01-19T17:49:08.769Z,22.91
2023-01-19T17:51:37.466Z,22.91
2023-01-19T17:54:06.173Z,22.75
2023-01-19T17:56:35.394Z,22.84
2023-01-19T17:59:05.071Z,22.86
2023-01-19T18:01:37.619Z,22.79
2023-01-19T18:04:08.109Z,22.62
2023-01-19T18:06:37.241Z,22.60
2023-01-19T18:09:06.494Z,22.50
2023-01-19T18:11:36.158Z,22.40
2023-01-19T18:14:05.831Z,22.41
2023-01-19T18:16:34.910Z,22.18
2023-01-19T18:19:03.422Z,22.09
2023-01-19T18:21:31.845Z,22.17
2023-01-19T18:24:02.552Z,22.22
2023-01-19T18:26:32.527Z,22.30
2023-01-19T18:29:01.373Z,22.27
2023-01-19T18:31:29.854Z,22.13
2023-01-19T18:33:58.818Z,22.17
2023-01-19T18:36:27.429Z,22.18
2023-01-19T18:38:55.746Z,22.25
2023-01-19T18:41:24.317Z,22.29
2023-01-19T18:43:56.774Z,22.34
2023-01-19T18:46:26.902Z,22.44
2023-01-19T18:48:55.234Z,22.42
2023-01-19T18:51:23.469Z,22.34
2023-01-19T18:53:52.099Z,22.36
2023-01-19T18:56:20.368Z,22.06
2023-01-19T18:58:48.580Z,22.16
2023-01-19T19:01:20.451Z,22.17
2023-01-19T19:03:48.823Z,22.16
2023-01-19T19:06:18.361Z,22.17
2023-01-19T19:08:55.907Z,22.16
2023-01-19T19:11:25.532Z,22.13
2023-01-19T19:13:56.993Z,22.10
2023-01-19T19:16:25.648Z,22.12
2023-01-19T19:18:54.022Z,22.08
2023-01-19T19:21:23.521Z,22.23
2023-01-19T19:23:54.470Z,22.14
2023-01-19T19:26:25.883Z,22.07
2023-01-19T19:28:55.448Z,21.92
2023-01-19T19:31:27.078Z,22.01
2023-01-19T19:33:57.233Z,21.92
2023-01-19T19:36:28.802Z,21.83
2023-01-19T19:38:59.552Z,21.93
2023-01-19T19:41:28.884Z,22.02
2023-01-19T19:43:57.128Z,21.99
2023-01-19T19:46:26.591Z,21.87
2023-01-19T19:48:56.160Z,21.77
2023-01-19T19:51:27.761Z,21.88
2023-01-19T19:53:58.422Z,21.94
2023-01-19T19:56:30.225Z,21.87
2023-01-19T19:58:59.977Z,21.80
2023-01-19T20:01:32.961Z,21.62
2023-01-19T20:04:10.963Z,21.72
2023-01-19T20:06:41.704Z,21.83
2023-01-19T20:09:12.452Z,21.90
2023-01-19T20:11:42.201Z,21.82
2023-01-19T20:14:13.276Z,21.92
2023-01-19T20:16:42.934Z,21.85
2023-01-19T20:19:11.916Z,21.88
2023-01-19T20:21:42.081Z,21.88
2023-01-19T20:24:17.617Z,22.05
2023-01-19T20:26:50.015Z,22.14
2023-01-19T20:29:20.177Z,21.96
2023-01-19T20:31:53.522Z,22.02
2023-01-19T20:34:26.472Z,22.08
2023-01-19T20:36:55.647Z,22.13
2023-01-19T20:39:24.674Z,21.92
2023-01-19T20:41:53.804Z,21.65
2023-01-19T20:44:25.612Z,21.55
2023-01-19T20:46:54.951Z,21.52
2023-01-19T20:49:23.687Z,21.54
2023-01-19T20:51:52.281Z,21.45
2023-01-19T20:54:24.495Z,21.57
2023-01-19T20:56:52.997Z,21.54
2023-01-19T20:59:21.670Z,21.50
2023-01-19T21:01:50.689Z,21.54
2023-01-19T21:04:19.331Z,21.28
2023-01-19T21:06:47.659Z,21.41
2023-01-19T21:09:15.959Z,21.54
2023-01-19T21:11:45.487Z,21.55
2023-01-19T21:14:15.307Z,21.60
2023-01-19T21:16:43.616Z,21.60
2023-01-19T21:19:12.083Z,21.61
2023-01-19T21:21:40.746Z,21.49
2023-01-19T21:24:10.832Z,21.38
2023-01-19T21:26:39.300Z,21.37
2023-01-19T21:29:09.344Z,21.29
2023-01-19T21:31:38.065Z,21.11
2023-01-19T21:34:07.138Z,21.15
2023-01-19T21:36:36.260Z,21.06
2023-01-19T21:39:04.476Z,21.02
2023-01-19T21:41:32.727Z,21.19
2023-01-19T21:44:01.787Z,20.97
2023-01-19T21:46:30.577Z,21.03
2023-01-19T21:49:01.327Z,20.99
2023-01-19T21:51:32.287Z,21.03
2023-01-19T21:54:05.199Z,20.99
2023-01-19T21:56:34.912Z,21.12
2023-01-19T21:59:03.185Z,21.04
2023-01-19T22:01:33.489Z,20.96
2023-01-19T22:04:02.601Z,20.69
2023-01-19T22:06:30.932Z,20.73
2023-01-19T22:08:59.484Z,20.92
2023-01-19T22:11:29.005Z,20.95
2023-01-19T22:13:57.608Z,20.98
2023-01-19T22:16:28.434Z,20.97
2023-01-19T22:19:01.564Z,20.94
2023-01-19T22:21:34.174Z,21.01
2023-01-19T22:24:04.553Z,20.97
2023-01-19T22:26:33.708Z,21.07
2023-01-19T22:29:03.838Z,21.08
2023-01-19T22:31:32.722Z,21.08
2023-01-19T22:34:01.055Z,20.75
2023-01-19T22:36:31.590Z,21.04
2023-01-19T22:39:11.041Z,20.93
2023-01-19T22:41:41.754Z,20.92
2023-01-19T22:44:19.052Z,21.05
2023-01-19T22:46:48.778Z,21.03
2023-01-19T22:49:18.516Z,21.02
2023-01-19T22:51:47.704Z,21.10
2023-01-19T22:54:15.959Z,21.19
2023-01-19T22:56:44.254Z,21.09
2023-01-19T22:59:12.671Z,20.94
2023-01-19T23:01:42.799Z,21.00
2023-01-19T23:04:14.504Z,20.92
2023-01-19T23:06:43.390Z,21.16
2023-01-19T23:09:14.317Z,21.16
2023-01-19T23:11:45.756Z,21.00
2023-01-19T23:14:17.197Z,21.03
2023-01-19T23:16:45.998Z,21.15
2023-01-19T23:19:14.709Z,21.19
2023-01-19T23:21:43.878Z,21.16
2023-01-19T23:24:13.080Z,21.09
2023-01-19T23:26:41.483Z,21.06
2023-01-19T23:29:15.075Z,21.26
2023-01-19T23:31:46.884Z,21.09
2023-01-19T23:34:15.497Z,20.86
2023-01-19T23:36:44.939Z,20.83
2023-01-19T23:39:21.899Z,21.00
2023-01-19T23:41:50.136Z,21.24
2023-01-19T23:44:18.744Z,21.05
2023-01-19T23:46:47.821Z,20.95
2023-01-19T23:49:16.537Z,20.92
2023-01-19T23:51:44.807Z,21.03
2023-01-19T23:54:14.075Z,21.12
2023-01-19T23:56:42.525Z,21.44
2023-01-19T23:59:13.363Z,21.21
